createdAt,value
2022-09-23T00:01:35.558Z,13.80
2022-09-23T00:04:03.989Z,13.90
2022-09-23T00:06:32.231Z,13.68
2022-09-23T00:09:00.586Z,19.05
2022-09-23T00:11:29.758Z,18.48
2022-09-23T00:14:01.278Z,17.17
2022-09-23T00:16:34.636Z,12.75
2022-09-23T00:19:06.483Z,13.13
2022-09-23T00:21:35.076Z,12.77
2022-09-23T00:24:03.545Z,12.93
2022-09-23T00:26:32.223Z,13.38
2022-09-23T00:29:00.710Z,13.45
2022-09-23T00:31:29.343Z,13.48
2022-09-23T00:34:00.631Z,13.57
2022-09-23T00:36:29.934Z,12.88
2022-09-23T00:38:58.246Z,17.83
2022-09-23T00:41:27.136Z,15.85
2022-09-23T00:43:57.123Z,13.05
2022-09-23T00:46:30.052Z,12.88
2022-09-23T00:49:04.633Z,12.68
2022-09-23T00:51:36.005Z,14.55
2022-09-23T00:54:06.719Z,12.53
2022-09-23T00:56:36.994Z,14.57
2022-09-23T00:59:09.747Z,14.32
2022-09-23T01:01:38.640Z,17.98
2022-09-23T01:04:10.038Z,15.73
2022-09-23T01:06:38.516Z,14.47
2022-09-23T01:09:06.940Z,11.50
2022-09-23T01:11:49.170Z,14.40
2022-09-23T01:14:33.370Z,12.13
2022-09-23T01:17:10.170Z,12.38
2022-09-23T01:20:20.819Z,11.65
2022-09-23T01:22:57.964Z,11.90
2022-09-23T01:25:43.646Z,12.55
2022-09-23T01:28:51.089Z,9.75
2022-09-23T01:31:25.637Z,11.85
2022-09-23T01:34:02.292Z,9.00
2022-09-23T01:36:41.212Z,7.72
2022-09-23T01:39:15.105Z,7.38
2022-09-23T01:41:55.110Z,9.60
2022-09-23T01:44:30.454Z,8.25
2022-09-23T01:47:11.143Z,7.03
2022-09-23T01:49:48.699Z,6.60
2022-09-23T01:52:23.947Z,8.68
2022-09-23T01:54:58.380Z,6.72
2022-09-23T01:57:32.711Z,7.72
2022-09-23T02:00:08.121Z,5.63
2022-09-23T02:02:50.124Z,4.85
2022-09-23T02:05:23.552Z,7.07
2022-09-23T02:07:58.112Z,5.05
2022-09-23T02:10:32.190Z,5.22
2022-09-23T02:13:06.519Z,4.78
2022-09-23T02:15:40.300Z,5.22
2022-09-23T02:18:14.456Z,4.55
2022-09-23T02:20:44.530Z,4.85
2022-09-23T02:23:15.210Z,4.63
2022-09-23T02:25:52.259Z,3.95
2022-09-23T02:28:31.049Z,5.53
2022-09-23T02:31:11.935Z,5.28
2022-09-23T02:33:48.048Z,4.25
2022-09-23T02:36:26.196Z,3.83
2022-09-23T02:38:57.557Z,3.13
2022-09-23T02:41:33.917Z,4.57
2022-09-23T02:44:07.549Z,5.70
2022-09-23T02:46:37.151Z,7.40
2022-09-23T02:49:12.688Z,2.97
2022-09-23T02:51:42.115Z,6.10
2022-09-23T02:54:15.039Z,3.42
2022-09-23T02:56:43.818Z,3.90
2022-09-23T02:59:13.583Z,3.58
2022-09-23T03:01:53.321Z,5.25
2022-09-23T03:04:32.065Z,3.80
2022-09-23T03:07:06.386Z,5.82
2022-09-23T03:09:41.881Z,6.10
2022-09-23T03:12:18.574Z,4.47
2022-09-23T03:14:56.065Z,5.90
2022-09-23T03:17:30.971Z,4.07
2022-09-23T03:20:05.674Z,4.15
2022-09-23T03:22:39.972Z,4.07
2022-09-23T03:25:12.654Z,5.03
2022-09-23T03:27:42.595Z,4.60
2022-09-23T03:30:12.862Z,3.47
2022-09-23T03:32:45.683Z,4.30
2022-09-23T03:35:16.142Z,2.80
2022-09-23T03:37:49.776Z,3.42
2022-09-23T03:40:22.819Z,4.57
2022-09-23T03:42:51.627Z,4.50
2022-09-23T03:45:26.187Z,3.05
2022-09-23T03:47:54.749Z,4.53
2022-09-23T03:50:24.535Z,6.82
2022-09-23T03:52:52.820Z,3.85
2022-09-23T03:55:22.946Z,5.40
2022-09-23T03:57:51.296Z,6.18
2022-09-23T04:00:19.966Z,5.70
2022-09-23T04:02:48.302Z,4.75
2022-09-23T04:05:18.069Z,4.82
2022-09-23T04:07:48.570Z,3.70
2022-09-23T04:10:16.960Z,4.40
2022-09-23T04:12:45.219Z,3.40
2022-09-23T04:15:13.515Z,8.00
2022-09-23T04:17:42.053Z,5.18
2022-09-23T04:20:11.004Z,6.65
2022-09-23T04:22:39.295Z,5.47
2022-09-23T04:25:10.313Z,3.80
2022-09-23T04:27:38.926Z,4.03
2022-09-23T04:30:08.189Z,3.95
2022-09-23T04:32:36.768Z,4.72
2022-09-23T04:35:06.339Z,4.18
2022-09-23T04:37:34.977Z,5.00
2022-09-23T04:40:04.012Z,5.18
2022-09-23T04:42:34.671Z,2.90
2022-09-23T04:45:04.646Z,3.08
2022-09-23T04:47:33.321Z,5.47
2022-09-23T04:50:01.663Z,4.07
2022-09-23T04:52:31.562Z,4.93
2022-09-23T04:54:59.756Z,3.90
2022-09-23T04:57:28.240Z,3.90
2022-09-23T04:59:58.122Z,7.32
2022-09-23T05:02:26.486Z,6.65
2022-09-23T05:04:57.296Z,3.92
2022-09-23T05:07:26.078Z,3.47
2022-09-23T05:09:55.946Z,3.05
2022-09-23T05:12:24.162Z,4.45
2022-09-23T05:14:52.358Z,4.82
2022-09-23T05:17:22.146Z,3.40
2022-09-23T05:19:50.352Z,3.53
2022-09-23T05:22:18.518Z,3.13
2022-09-23T05:24:46.998Z,3.67
2022-09-23T05:27:20.327Z,5.85
2022-09-23T05:29:53.580Z,11.27
2022-09-23T05:32:24.539Z,5.55
2022-09-23T05:34:55.742Z,3.72
2022-09-23T05:37:25.140Z,3.63
2022-09-23T05:39:53.266Z,5.38
2022-09-23T05:42:21.770Z,5.15
2022-09-23T05:44:50.161Z,4.30
2022-09-23T05:47:18.338Z,3.85
2022-09-23T05:49:59.659Z,8.18
2022-09-23T05:52:29.282Z,4.72
2022-09-23T05:54:57.488Z,3.78
2022-09-23T05:57:26.147Z,4.22
2022-09-23T05:59:54.358Z,4.68
2022-09-23T06:02:22.583Z,5.68
2022-09-23T06:04:52.570Z,5.57
2022-09-23T06:07:21.030Z,3.25
2022-09-23T06:09:50.634Z,3.50
2022-09-23T06:12:19.799Z,5.95
2022-09-23T06:14:48.803Z,4.35
2022-09-23T06:17:17.504Z,6.25
2022-09-23T06:19:45.703Z,5.63
2022-09-23T06:22:17.923Z,8.13
2022-09-23T06:24:47.705Z,4.55
2022-09-23T06:27:16.147Z,8.80
2022-09-23T06:29:44.367Z,8.32
2022-09-23T06:32:12.655Z,4.93
2022-09-23T06:34:50.744Z,6.70
2022-09-23T06:37:21.531Z,5.80
2022-09-23T06:39:50.059Z,5.60
2022-09-23T06:42:19.566Z,4.90
2022-09-23T06:44:47.862Z,5.40
2022-09-23T06:47:16.118Z,5.70
2022-09-23T06:49:45.729Z,7.93
2022-09-23T06:52:13.879Z,4.78
2022-09-23T06:54:43.609Z,8.23
2022-09-23T06:57:12.466Z,6.88
2022-09-23T06:59:41.827Z,6.18
2022-09-23T07:02:10.436Z,7.57
2022-09-23T07:04:39.014Z,9.20
2022-09-23T07:07:07.367Z,6.43
2022-09-23T07:09:35.714Z,9.13
2022-09-23T07:12:05.819Z,5.78
2022-09-23T07:14:34.637Z,5.35
2022-09-23T07:17:03.727Z,7.35
2022-09-23T07:19:32.330Z,5.88
2022-09-23T07:22:00.570Z,4.30
2022-09-23T07:24:29.131Z,7.65
2022-09-23T07:26:57.920Z,6.28
2022-09-23T07:29:30.345Z,5.68
2022-09-23T07:32:10.036Z,5.15
2022-09-23T07:37:12.039Z,7.25
2022-09-23T07:39:40.354Z,7.05
2022-09-23T07:42:08.963Z,5.28
2022-09-23T07:44:38.587Z,9.27
2022-09-23T07:47:07.175Z,5.93
2022-09-23T07:49:36.660Z,5.20
2022-09-23T07:52:06.569Z,6.40
2022-09-23T07:54:47.835Z,5.07
2022-09-23T07:57:28.565Z,4.53
2022-09-23T08:00:19.829Z,5.90
2022-09-23T08:03:00.627Z,3.88
2022-09-23T08:05:49.063Z,6.90
2022-09-23T08:08:30.585Z,4.10
2022-09-23T08:11:14.595Z,5.15
2022-09-23T08:14:03.582Z,6.03
2022-09-23T08:16:54.211Z,4.70
2022-09-23T08:19:35.557Z,4.72
2022-09-23T08:22:23.548Z,4.35
2022-09-23T08:25:12.807Z,3.83
2022-09-23T08:28:01.232Z,3.28
2022-09-23T08:30:42.978Z,4.95
2022-09-23T08:33:33.270Z,2.67
2022-09-23T08:36:13.905Z,2.90
2022-09-23T08:38:42.257Z,3.38
2022-09-23T08:41:17.840Z,4.10
2022-09-23T08:43:49.909Z,3.75
2022-09-23T08:46:25.230Z,4.32
2022-09-23T08:48:56.347Z,7.00
2022-09-23T08:51:32.742Z,3.70
2022-09-23T08:54:02.437Z,3.95
2022-09-23T08:56:35.244Z,3.90
2022-09-23T08:59:10.771Z,2.72
2022-09-23T09:01:44.541Z,4.05
2022-09-23T09:04:21.607Z,3.67
2022-09-23T09:06:55.888Z,3.80
2022-09-23T09:09:32.350Z,4.70
2022-09-23T09:12:06.549Z,3.83
2022-09-23T09:14:44.103Z,4.35
2022-09-23T09:17:20.144Z,5.55
2022-09-23T09:20:05.428Z,3.85
2022-09-23T09:22:46.071Z,9.23
2022-09-23T09:25:24.216Z,3.28
2022-09-23T09:27:53.882Z,5.18
2022-09-23T09:30:22.191Z,3.60
2022-09-23T09:32:58.432Z,6.47
2022-09-23T09:35:37.807Z,3.75
2022-09-23T09:38:06.917Z,4.72
2022-09-23T09:40:37.312Z,2.60
2022-09-23T09:43:05.713Z,3.20
2022-09-23T09:45:58.058Z,6.28
2022-09-23T09:51:19.530Z,3.15
2022-09-23T09:53:48.338Z,3.20
2022-09-23T09:56:18.721Z,3.60
2022-09-23T09:58:50.294Z,4.20
2022-09-23T10:01:23.474Z,2.55
2022-09-23T10:03:56.938Z,3.63
2022-09-23T10:06:31.783Z,3.47
2022-09-23T10:09:12.830Z,2.05
2022-09-23T10:11:42.088Z,2.28
2022-09-23T10:14:18.205Z,2.78
2022-09-23T10:16:48.923Z,3.28
2022-09-23T10:19:26.815Z,2.28
2022-09-23T10:22:00.324Z,2.88
2022-09-23T10:24:32.318Z,3.38
2022-09-23T10:27:04.482Z,3.88
2022-09-23T10:29:35.439Z,1.80
2022-09-23T10:32:25.741Z,2.50
2022-09-23T10:34:57.445Z,1.75
2022-09-23T10:40:18.959Z,2.00
2022-09-23T10:43:33.407Z,1.55
2022-09-23T10:46:22.661Z,1.67
2022-09-23T10:49:04.753Z,3.65
2022-09-23T10:51:43.755Z,2.10
2022-09-23T10:54:26.090Z,2.20
2022-09-23T10:57:00.958Z,2.50
2022-09-23T10:59:55.309Z,2.10
2022-09-23T11:02:41.962Z,2.30
2022-09-23T11:05:26.985Z,2.28
2022-09-23T11:08:04.677Z,2.00
2022-09-23T11:11:04.779Z,3.15
2022-09-23T11:13:54.713Z,1.77
2022-09-23T11:16:39.305Z,6.85
2022-09-23T11:19:25.517Z,2.22
2022-09-23T11:22:17.395Z,3.15
2022-09-23T11:25:01.752Z,2.00
2022-09-23T11:27:46.209Z,2.38
2022-09-23T11:30:17.707Z,3.13
2022-09-23T11:35:38.463Z,4.65
2022-09-23T11:38:12.178Z,6.50
2022-09-23T11:40:45.604Z,3.55
2022-09-23T11:43:23.615Z,2.75
2022-09-23T11:45:59.014Z,5.25
2022-09-23T11:48:35.293Z,4.68
2022-09-23T11:51:11.102Z,5.10
2022-09-23T11:53:48.729Z,5.43
2022-09-23T11:56:34.202Z,4.50
2022-09-23T11:59:12.029Z,5.50
2022-09-23T12:01:46.924Z,7.30
2022-09-23T12:04:25.180Z,6.35
2022-09-23T12:07:01.175Z,4.45
2022-09-23T12:09:57.383Z,7.28
2022-09-23T12:12:36.844Z,4.88
2022-09-23T12:15:25.302Z,3.70
2022-09-23T12:18:23.300Z,3.65
2022-09-23T12:21:32.766Z,3.35
2022-09-23T12:24:25.164Z,4.53
2022-09-23T12:32:07.472Z,4.32
2022-09-23T12:34:44.174Z,6.72
2022-09-23T12:37:12.487Z,5.70
2022-09-23T12:39:41.107Z,4.40
2022-09-23T12:42:20.047Z,3.53
2022-09-23T12:44:54.088Z,1.90
2022-09-23T12:47:39.939Z,2.47
2022-09-23T12:50:42.007Z,4.32
2022-09-23T12:53:50.405Z,2.40
2022-09-23T12:56:20.275Z,3.45
2022-09-23T12:59:13.153Z,5.00
2022-09-23T13:01:42.799Z,4.65
2022-09-23T13:04:49.255Z,6.22
2022-09-23T13:07:28.362Z,4.53
2022-09-23T13:10:07.183Z,5.80
2022-09-23T13:12:46.173Z,4.85
2022-09-23T13:15:25.957Z,11.82
2022-09-23T13:17:54.231Z,3.90
2022-09-23T13:20:43.317Z,4.22
2022-09-23T13:23:22.913Z,3.63
2022-09-23T13:25:53.371Z,5.20
2022-09-23T13:28:35.063Z,6.60
2022-09-23T13:31:15.258Z,2.40
2022-09-23T13:33:48.516Z,3.58
2022-09-23T13:36:20.488Z,5.15
2022-09-23T13:38:49.425Z,3.92
2022-09-23T13:41:22.709Z,3.10
2022-09-23T13:43:53.323Z,5.05
2022-09-23T13:46:24.646Z,4.25
2022-09-23T13:48:56.844Z,3.03
2022-09-23T13:53:58.916Z,2.35
2022-09-23T13:56:29.444Z,5.70
2022-09-23T13:59:23.717Z,2.20
2022-09-23T14:01:52.364Z,2.80
2022-09-23T14:04:25.869Z,5.93
2022-09-23T14:06:56.731Z,3.65
2022-09-23T14:09:30.467Z,3.13
2022-09-23T14:12:02.407Z,2.33
2022-09-23T14:14:39.422Z,6.40
2022-09-23T14:17:10.308Z,2.70
2022-09-23T14:19:41.314Z,1.83
2022-09-23T14:22:25.095Z,2.35
2022-09-23T14:25:03.403Z,1.80
2022-09-23T14:27:39.865Z,2.75
2022-09-23T14:30:15.282Z,2.58
2022-09-23T14:32:50.863Z,3.28
2022-09-23T14:35:25.286Z,1.98
2022-09-23T14:38:20.219Z,6.05
2022-09-23T14:44:02.878Z,5.68
2022-09-23T14:46:35.455Z,3.35
2022-09-23T14:49:08.097Z,4.35
2022-09-23T14:51:47.952Z,3.92
2022-09-23T14:54:42.950Z,4.85
2022-09-23T14:57:27.756Z,3.72
2022-09-23T14:59:59.901Z,4.47
2022-09-23T15:02:33.702Z,3.80
2022-09-23T15:05:41.928Z,2.63
2022-09-23T15:08:20.964Z,2.53
2022-09-23T15:11:07.874Z,3.28
2022-09-23T15:13:46.640Z,2.85
2022-09-23T15:16:18.930Z,2.25
2022-09-23T15:18:54.731Z,2.30
2022-09-23T15:21:28.088Z,6.43
2022-09-23T15:23:58.704Z,5.90
2022-09-23T15:26:50.179Z,3.65
2022-09-23T15:29:33.119Z,2.05
2022-09-23T15:32:02.079Z,2.65
2022-09-23T15:34:33.835Z,3.78
2022-09-23T15:37:21.165Z,2.88
2022-09-23T15:39:58.532Z,3.33
2022-09-23T15:42:37.977Z,2.72
2022-09-23T15:45:07.295Z,2.75
2022-09-23T15:47:50.571Z,4.85
2022-09-23T15:50:36.447Z,3.45
2022-09-23T15:53:06.918Z,2.63
2022-09-23T15:55:45.903Z,4.32
2022-09-23T15:58:45.432Z,5.15
2022-09-23T16:01:20.362Z,4.45
2022-09-23T16:03:58.880Z,5.75
2022-09-23T16:06:53.412Z,7.18
2022-09-23T16:12:23.259Z,2.67
2022-09-23T16:15:13.630Z,4.32
2022-09-23T16:17:49.026Z,2.92
2022-09-23T16:20:22.446Z,4.18
2022-09-23T16:23:07.426Z,4.88
2022-09-23T16:25:37.210Z,3.90
2022-09-23T16:28:07.057Z,7.63
2022-09-23T16:30:56.662Z,4.03
2022-09-23T16:33:45.270Z,6.13
2022-09-23T16:36:20.989Z,7.45
2022-09-23T16:38:52.887Z,5.57
2022-09-23T16:41:27.756Z,4.85
2022-09-23T16:44:00.719Z,4.95
2022-09-23T16:46:31.618Z,4.95
2022-09-23T16:54:37.446Z,5.43
2022-09-23T16:57:07.066Z,6.10
2022-09-23T16:59:49.094Z,5.28
2022-09-23T17:02:36.129Z,3.08
2022-09-23T17:05:05.771Z,4.85
2022-09-23T17:07:34.233Z,3.40
2022-09-23T17:10:05.778Z,4.97
2022-09-23T17:12:35.200Z,5.90
2022-09-23T17:15:11.153Z,5.10
2022-09-23T17:17:40.956Z,1.67
2022-09-23T17:20:09.534Z,6.88
2022-09-23T17:22:37.666Z,3.42
2022-09-23T17:25:06.757Z,3.60
2022-09-23T17:27:34.921Z,10.98
2022-09-23T17:30:03.429Z,2.42
2022-09-23T17:32:32.073Z,3.50
2022-09-23T17:35:04.961Z,5.28
2022-09-23T17:37:43.875Z,4.07
2022-09-23T17:40:12.678Z,2.83
2022-09-23T17:42:42.268Z,6.00
2022-09-23T17:45:17.754Z,3.63
2022-09-23T17:47:58.133Z,4.78
2022-09-23T17:50:28.176Z,4.25
2022-09-23T17:52:56.999Z,6.63
2022-09-23T17:55:28.105Z,6.45
2022-09-23T17:58:11.112Z,6.78
2022-09-23T18:00:39.463Z,6.57
2022-09-23T18:03:07.928Z,4.72
2022-09-23T18:06:08.717Z,13.75
2022-09-23T18:08:37.934Z,5.63
2022-09-23T18:11:46.712Z,3.05
2022-09-23T18:14:27.708Z,6.78
2022-09-23T18:16:56.644Z,9.73
2022-09-23T18:19:34.715Z,3.05
2022-09-23T18:22:21.986Z,3.00
2022-09-23T18:24:50.676Z,7.72
2022-09-23T18:27:19.263Z,2.08
2022-09-23T18:30:18.661Z,8.48
2022-09-23T18:33:00.045Z,4.82
2022-09-23T18:39:10.634Z,6.72
2022-09-23T18:41:38.917Z,5.75
2022-09-23T18:44:25.666Z,7.90
2022-09-23T18:47:32.517Z,5.85
2022-09-23T18:53:50.624Z,8.98
2022-09-23T18:57:34.778Z,6.55
2022-09-23T19:00:15.258Z,4.32
2022-09-23T19:03:41.010Z,9.27
2022-09-23T19:10:43.307Z,4.40
2022-09-23T19:13:55.355Z,5.13
2022-09-23T19:17:01.631Z,7.85
2022-09-23T19:20:07.051Z,5.93
2022-09-23T19:22:53.601Z,7.20
2022-09-23T19:26:15.790Z,3.33
2022-09-23T19:29:31.459Z,5.10
2022-09-23T19:32:27.195Z,5.30
2022-09-23T19:35:37.566Z,6.82
2022-09-23T19:38:34.309Z,7.35
2022-09-23T19:45:41.557Z,2.58
2022-09-23T19:48:48.641Z,3.53
2022-09-23T19:56:02.543Z,4.32
2022-09-23T20:03:07.568Z,3.40
2022-09-23T20:06:04.663Z,9.40
2022-09-23T20:09:16.386Z,5.43
2022-09-23T20:23:34.597Z,5.70
2022-09-23T20:27:10.155Z,10.40
2022-09-23T20:46:09.562Z,9.93
2022-09-23T20:50:11.612Z,7.28
2022-09-23T21:12:38.998Z,7.75
2022-09-23T21:27:11.673Z,4.70
2022-09-23T21:37:18.696Z,14.40
2022-09-23T21:47:34.431Z,6.68
2022-09-23T21:50:57.333Z,0.80
2022-09-23T21:53:52.051Z,4.93
2022-09-23T22:03:56.279Z,11.23
2022-09-23T22:14:11.938Z,5.63
2022-09-23T22:17:37.408Z,4.82
2022-09-23T22:20:21.219Z,10.23
2022-09-23T22:23:32.400Z,7.68
2022-09-23T22:26:29.820Z,1.70
2022-09-23T22:29:43.425Z,6.88
2022-09-23T22:43:08.605Z,2.72
2022-09-23T22:46:25.965Z,7.47
2022-09-23T22:53:04.133Z,9.15
2022-09-23T23:00:44.399Z,5.00
2022-09-23T23:08:38.668Z,2.40
2022-09-23T23:11:32.408Z,2.92
2022-09-23T23:14:54.445Z,7.75
2022-09-23T23:17:43.721Z,3.25
2022-09-23T23:20:46.237Z,7.95
2022-09-23T23:23:49.235Z,9.60
2022-09-23T23:32:09.553Z,3.55
2022-09-23T23:34:52.777Z,9.02
2022-09-23T23:38:08.512Z,6.30
2022-09-23T23:41:41.005Z,3.17
2022-09-23T23:45:25.234Z,6.18
2022-09-23T23:48:26.562Z,8.80
2022-09-23T23:58:38.199Z,4.22
